Ashford, Alabama
Current Conditions -  °F | °C
As of 5:53 PM on Friday 31 Oct 2014 (Local Time) from KDHN Reporting Station
Broken Clouds Broken Clouds  
Wind Chill: 65°   Ceiling: 11000
Heat Index: 65°   Visibility: 10mi
Dew Point: 44°   Wind: 22mph
Humidity: 47%   Direction: 330°NNW
Pressure: 29.91"   Gusts: 30mph
Location:  31.18°N, 85.24°W
Report Text: KDHN 312253Z 33019G26KT 10SM SCT060 SCT080 BKN110 18/07 A2991 RMK AO2 PK WND 33026/2252 SLP127 T01830067
Loading
Personal Weather Stations






























Interactive Weather Map
Tropical Storm Tracking
New forecast layout! Learn more

10-Day Weather Forecast

Advertisements
Track Severe Weather on mobile